Time;durP1;ratioP1;P1;durP2;ratioP2;P2;SDS_P1;SDS_P2;PMS_P1;PMS_P2;Temp;Humidity;BMP_temperature;BMP_pressure;BME280_temperature;BME280_humidity;BME280_pressure;Samples;Min_cycle;Max_cycle;Signal;HPM_P1;HPM_P2
2022/12/04 00:02:08;;;;;;;1.83;1.08;;;22.10;58.00;;;;;;6212253;23;20388;-71
2022/12/04 00:04:35;;;;;;;7.20;1.65;;;22.00;57.80;;;;;;6210624;23;20004;-70
2022/12/04 00:07:02;;;;;;;2.35;0.65;;;22.10;58.20;;;;;;6212096;23;20083;-70
2022/12/04 00:09:28;;;;;;;1.15;0.60;;;22.00;58.20;;;;;;6210343;23;20135;-70
2022/12/04 00:11:55;;;;;;;3.72;1.20;;;22.00;58.20;;;;;;6211524;23;20013;-72
2022/12/04 00:14:22;;;;;;;1.17;0.73;;;22.00;58.20;;;;;;6211183;23;20055;-70
2022/12/04 00:16:49;;;;;;;4.47;0.90;;;22.10;58.40;;;;;;6210788;23;20001;-70
2022/12/04 00:19:16;;;;;;;2.35;0.80;;;22.00;58.30;;;;;;6211629;23;20443;-71
2022/12/04 00:21:44;;;;;;;3.83;1.95;;;22.00;58.20;;;;;;6183517;23;20009;-70
2022/12/04 00:24:10;;;;;;;2.08;1.15;;;22.00;58.20;;;;;;6211887;23;20000;-70
2022/12/04 00:26:37;;;;;;;6.45;1.52;;;22.00;58.10;;;;;;6210137;23;20443;-70
2022/12/04 02:20:30;;;;;;;3.70;0.75;;;21.10;58.30;;;;;;5074366;28;20028;-66
2022/12/04 02:22:56;;;;;;;2.20;0.60;;;21.10;58.30;;;;;;5082939;28;20587;-66
2022/12/04 02:25:47;;;;;;;2.78;0.93;;;21.20;58.10;;;;;;5085718;28;20503;-67
2022/12/04 02:28:46;;;;;;;2.08;0.70;;;21.20;58.10;;;;;;5085415;28;20394;-68
2022/12/04 02:31:21;;;;;;;2.00;0.90;;;21.20;57.90;;;;;;5076747;28;20043;-67
2022/12/04 02:34:12;;;;;;;2.20;0.95;;;21.20;57.90;;;;;;5083218;28;20471;-67
2022/12/04 02:37:00;;;;;;;4.03;1.52;;;21.20;57.90;;;;;;5083772;28;20044;-67
2022/12/04 02:39:43;;;;;;;5.53;1.67;;;21.20;57.80;;;;;;5085634;28;20013;-67
2022/12/04 02:42:27;;;;;;;3.83;1.40;;;21.20;57.70;;;;;;5085044;28;20040;-66
2022/12/04 02:45:18;;;;;;;2.38;0.82;;;21.20;57.60;;;;;;5083579;28;20032;-68
2022/12/04 02:47:46;;;;;;;29.77;15.73;;;21.20;57.60;;;;;;5075061;28;20593;-68
2022/12/04 02:50:17;;;;;;;13.35;9.95;;;21.20;57.90;;;;;;5084714;28;20048;-67
2022/12/04 02:52:49;;;;;;;7.43;5.70;;;21.20;58.00;;;;;;5082028;28;20082;-66
2022/12/04 02:55:30;;;;;;;5.57;2.58;;;21.20;57.90;;;;;;5085240;28;20036;-67
2022/12/04 02:58:04;;;;;;;5.07;1.83;;;21.20;57.70;;;;;;5083234;28;20094;-66
2022/12/04 03:00:32;;;;;;;2.17;1.33;;;21.20;57.60;;;;;;5085140;28;20475;-66
2022/12/04 03:03:19;;;;;;;2.35;0.80;;;21.10;57.40;;;;;;5083649;28;20451;-69
2022/12/04 03:05:58;;;;;;;2.08;0.70;;;21.10;57.30;;;;;;5078645;28;20126;-68
2022/12/04 03:08:36;;;;;;;2.65;0.80;;;21.10;57.20;;;;;;5086065;28;20039;-66
2022/12/04 03:11:03;;;;;;;2.72;0.80;;;21.10;57.20;;;;;;5082954;28;20541;-67
2022/12/04 03:13:43;;;;;;;1.45;0.52;;;21.10;57.20;;;;;;5084225;28;20069;-67
2022/12/04 03:16:15;;;;;;;6.22;2.92;;;21.10;57.10;;;;;;5080757;28;20044;-68
2022/12/04 03:19:05;;;;;;;2.22;0.52;;;21.10;57.10;;;;;;5066369;28;20442;-66
2022/12/04 03:21:35;;;;;;;3.78;0.73;;;21.10;57.10;;;;;;5071501;28;20434;-66
2022/12/04 03:24:16;;;;;;;2.60;1.00;;;21.10;57.10;;;;;;5063564;28;20079;-70
2022/12/04 03:26:48;;;;;;;2.88;0.80;;;21.00;57.80;;;;;;5066130;28;20028;-67
2022/12/04 03:29:44;;;;;;;10.35;4.78;;;21.10;57.20;;;;;;5070972;28;20037;-67
2022/12/04 03:32:25;;;;;;;7.50;5.45;;;21.00;57.60;;;;;;5064661;28;20118;-69
2022/12/04 03:35:19;;;;;;;7.35;3.35;;;21.00;58.20;;;;;;5062996;28;20778;-67
2022/12/04 03:38:00;;;;;;;6.40;1.98;;;21.00;58.00;;;;;;5063024;28;20147;-67
2022/12/04 03:40:49;;;;;;;17.90;1.77;;;21.00;57.70;;;;;;5065293;28;20025;-67
2022/12/04 03:43:47;;;;;;;3.13;1.38;;;21.00;57.50;;;;;;5065925;28;20017;-69
2022/12/04 03:46:52;;;;;;;2.20;0.88;;;21.00;57.40;;;;;;5062057;28;20479;-68
2022/12/04 03:49:27;;;;;;;1.98;0.60;;;20.90;57.30;;;;;;5057375;28;20574;-67
2022/12/04 03:51:59;;;;;;;2.65;1.20;;;21.00;57.40;;;;;;5065409;28;20043;-67
2022/12/04 03:54:36;;;;;;;5.13;1.60;;;20.90;57.30;;;;;;5064105;28;20044;-69
2022/12/04 03:57:27;;;;;;;2.20;0.95;;;21.00;57.30;;;;;;5065053;28;20044;-67
2022/12/04 04:00:08;;;;;;;3.35;1.52;;;20.90;57.30;;;;;;5065734;28;20029;-67
2022/12/04 04:02:47;;;;;;;14.10;6.18;;;20.90;57.30;;;;;;5069311;28;20120;-69
2022/12/04 04:05:16;;;;;;;9.32;7.50;;;20.90;58.00;;;;;;5069832;28;20037;-66
2022/12/04 04:08:24;;;;;;;10.52;5.20;;;20.90;58.40;;;;;;5062600;28;20478;-68
2022/12/04 04:10:50;;;;;;;9.35;2.78;;;20.90;58.10;;;;;;5067393;28;20082;-68
2022/12/04 04:24:50;;;;;;;5.53;0.82;;;20.80;57.60;;;;;;5067914;28;20072;-67
2022/12/04 04:27:17;;;;;;;1.77;0.60;;;20.90;57.80;;;;;;5069584;28;20131;-66
2022/12/04 04:29:44;;;;;;;4.57;0.93;;;20.90;57.90;;;;;;5063534;28;20028;-67
2022/12/04 04:32:23;;;;;;;1.48;0.52;;;20.90;57.90;;;;;;5066787;28;20074;-67
2022/12/04 04:34:59;;;;;;;3.58;1.58;;;20.90;57.80;;;;;;5064662;28;20025;-66
2022/12/04 04:37:34;;;;;;;5.18;1.15;;;20.90;57.70;;;;;;5067742;28;20028;-67
2022/12/04 04:40:39;;;;;;;18.35;14.57;;;20.90;57.60;;;;;;5070186;28;20075;-67
2022/12/04 04:43:31;;;;;;;20.77;15.40;;;20.80;57.90;;;;;;5058328;28;20029;-66
2022/12/04 04:46:12;;;;;;;8.93;7.43;;;20.80;57.80;;;;;;5063236;28;20379;-66
2022/12/04 04:48:46;;;;;;;10.57;4.63;;;20.90;57.80;;;;;;5069468;28;20573;-67
2022/12/04 04:51:14;;;;;;;5.72;2.78;;;20.90;57.70;;;;;;5069727;28;20024;-67
2022/12/04 04:53:53;;;;;;;4.88;2.70;;;20.90;57.70;;;;;;5068727;28;20058;-67
2022/12/04 04:56:21;;;;;;;6.75;2.92;;;20.90;57.70;;;;;;5069242;28;20129;-67
2022/12/04 04:58:48;;;;;;;2.35;1.05;;;20.90;57.70;;;;;;5068629;28;20147;-66
2022/12/04 05:01:17;;;;;;;4.03;1.95;;;20.90;57.70;;;;;;5070039;28;20315;-67
2022/12/04 05:03:44;;;;;;;3.10;1.30;;;20.90;57.70;;;;;;5061750;28;20090;-66
2022/12/04 05:06:10;;;;;;;6.45;1.90;;;20.90;57.70;;;;;;5069481;28;20054;-67
2022/12/04 05:08:37;;;;;;;7.97;6.53;;;20.90;57.80;;;;;;5068870;28;20028;-66
2022/12/04 05:11:05;;;;;;;9.85;5.00;;;20.90;58.20;;;;;;5069158;28;20024;-67
2022/12/04 05:13:32;;;;;;;8.75;2.95;;;20.90;58.50;;;;;;5068387;28;20024;-66
2022/12/04 05:16:05;;;;;;;3.75;1.85;;;20.90;58.50;;;;;;5067977;28;20080;-67
2022/12/04 05:18:32;;;;;;;2.88;1.52;;;21.00;58.60;;;;;;5069107;28;20047;-67
2022/12/04 05:21:03;;;;;;;2.85;1.25;;;21.00;58.30;;;;;;5068001;28;20021;-66
2022/12/04 05:23:30;;;;;;;2.80;1.10;;;21.00;57.90;;;;;;5068501;28;20021;-66
2022/12/04 05:26:04;;;;;;;2.38;0.82;;;21.00;57.70;;;;;;5068704;28;20025;-67
2022/12/04 05:28:31;;;;;;;5.30;1.15;;;21.10;57.50;;;;;;5067458;28;20036;-67
2022/12/04 05:31:00;;;;;;;8.60;1.17;;;21.00;57.20;;;;;;5069440;28;20048;-65
2022/12/04 05:33:26;;;;;;;6.88;1.10;;;21.10;57.00;;;;;;5064035;28;20433;-65
2022/12/04 05:35:57;;;;;;;1.73;1.15;;;21.10;57.50;;;;;;5063944;28;20423;-66
2022/12/04 05:38:24;;;;;;;3.00;1.10;;;21.10;57.40;;;;;;5067118;28;20028;-66
2022/12/04 05:41:30;;;;;;;2.25;0.80;;;21.10;57.20;;;;;;5061455;28;20030;-66
2022/12/04 05:44:36;;;;;;;4.13;1.20;;;21.20;57.30;;;;;;5064433;28;20025;-67
2022/12/04 05:47:42;;;;;;;2.42;0.95;;;21.20;57.40;;;;;;5064205;28;20421;-68
2022/12/04 05:50:48;;;;;;;10.00;3.40;;;21.20;57.60;;;;;;5061221;28;20028;-68
2022/12/04 05:53:54;;;;;;;8.48;4.82;;;21.30;57.50;;;;;;5062136;28;20371;-66
2022/12/04 05:57:00;;;;;;;5.55;3.25;;;21.30;57.20;;;;;;5062579;28;20049;-67
2022/12/04 06:00:06;;;;;;;4.18;2.00;;;21.30;56.70;;;;;;5061981;28;20089;-68
2022/12/04 06:03:13;;;;;;;4.43;1.52;;;21.40;56.50;;;;;;5060666;28;20029;-67
2022/12/04 06:06:19;;;;;;;6.85;4.38;;;21.40;56.20;;;;;;5062169;28;20017;-65
2022/12/04 06:08:45;;;;;;;7.25;6.03;;;21.50;56.10;;;;;;5056601;28;20090;-66
2022/12/04 06:11:51;;;;;;;4.57;3.03;;;21.50;56.00;;;;;;5063367;28;20017;-68
2022/12/04 06:14:57;;;;;;;5.13;2.45;;;21.50;55.70;;;;;;5063418;28;20036;-67
2022/12/04 06:18:03;;;;;;;3.25;1.88;;;21.60;55.60;;;;;;5058326;28;20040;-67
2022/12/04 06:21:09;;;;;;;7.43;2.30;;;21.60;55.40;;;;;;5059790;28;20142;-67
2022/12/04 06:24:15;;;;;;;6.85;4.90;;;21.60;55.10;;;;;;5060971;28;20050;-67
2022/12/04 06:27:22;;;;;;;3.13;1.60;;;21.70;54.90;;;;;;5061760;28;20040;-67
2022/12/04 06:30:29;;;;;;;2.60;1.08;;;21.70;53.90;;;;;;5059305;28;20030;-67
2022/12/04 06:33:35;;;;;;;1.90;0.90;;;21.80;53.10;;;;;;5060003;28;20047;-67
2022/12/04 06:36:41;;;;;;;8.88;5.93;;;21.80;53.00;;;;;;5060879;28;20124;-67
2022/12/04 06:39:47;;;;;;;7.75;6.85;;;21.80;53.30;;;;;;5060608;28;20039;-67
2022/12/04 06:42:53;;;;;;;9.18;6.57;;;21.80;53.50;;;;;;5060538;28;20020;-67
2022/12/04 06:45:59;;;;;;;6.60;4.57;;;21.80;53.60;;;;;;5061905;28;20492;-67
2022/12/04 06:48:45;;;;;;;;;;;21.90;53.60;;;;;;5062221;28;20499;-67
2022/12/04 06:51:51;;;;;;;7.20;2.88;;;21.90;53.50;;;;;;5061907;28;20282;-66
2022/12/04 06:54:57;;;;;;;3.05;1.05;;;22.00;53.40;;;;;;5065372;28;20103;-67
2022/12/04 06:58:03;;;;;;;1.98;1.23;;;22.10;52.30;;;;;;5064867;28;20047;-67
2022/12/04 07:01:10;;;;;;;6.35;3.90;;;22.10;51.80;;;;;;5054983;28;20434;-66
2022/12/04 07:04:16;;;;;;;5.25;2.08;;;22.10;52.00;;;;;;5055743;28;20419;-67
2022/12/04 07:07:22;;;;;;;2.17;0.77;;;22.10;52.00;;;;;;5057418;28;20056;-67
2022/12/04 07:10:28;;;;;;;0.68;0.68;;;22.20;51.60;;;;;;5056045;28;20024;-66
2022/12/04 07:13:34;;;;;;;1.67;0.70;;;22.20;51.00;;;;;;5056460;28;20760;-67
2022/12/04 07:16:40;;;;;;;1.65;0.40;;;22.20;50.80;;;;;;5066431;28;20044;-67
2022/12/04 07:19:08;;;;;;;1.90;1.23;;;22.30;50.80;;;;;;5067060;28;20112;-66
2022/12/04 07:21:34;;;;;;;3.70;0.98;;;22.30;50.30;;;;;;5068987;28;20028;-66
2022/12/04 07:24:01;;;;;;;4.53;1.10;;;22.30;50.20;;;;;;5069912;28;20050;-66
2022/12/04 07:26:28;;;;;;;1.38;0.73;;;22.40;51.00;;;;;;5068208;28;20029;-66
2022/12/04 07:28:56;;;;;;;17.08;12.88;;;22.40;50.80;;;;;;5070052;28;20441;-67
2022/12/04 07:31:24;;;;;;;9.95;6.30;;;22.50;50.90;;;;;;5069264;28;20466;-66
2022/12/04 07:33:52;;;;;;;7.22;2.45;;;22.50;51.10;;;;;;5068428;28;20114;-66
2022/12/04 07:36:20;;;;;;;1.85;0.60;;;22.60;51.40;;;;;;5070161;28;20051;-66
2022/12/04 07:38:47;;;;;;;1.70;0.60;;;22.60;51.40;;;;;;5068040;28;20052;-65
2022/12/04 07:41:14;;;;;;;3.40;1.23;;;22.70;50.80;;;;;;5070704;28;20486;-66
2022/12/04 07:43:41;;;;;;;1.70;0.70;;;22.70;50.30;;;;;;5068324;28;20105;-67
2022/12/04 07:46:14;;;;;;;12.43;1.92;;;22.80;50.70;;;;;;5070213;28;20028;-69
2022/12/04 07:48:42;;;;;;;1.67;0.73;;;22.80;49.80;;;;;;5068874;28;20013;-69
2022/12/04 07:51:14;;;;;;;3.13;0.90;;;22.90;49.80;;;;;;5069699;28;20028;-67
2022/12/04 07:53:41;;;;;;;8.98;1.10;;;22.90;50.00;;;;;;5066022;28;20060;-68
2022/12/04 07:56:09;;;;;;;4.40;1.13;;;22.90;50.20;;;;;;5060970;28;20039;-65
2022/12/04 07:58:36;;;;;;;3.85;0.73;;;23.00;50.50;;;;;;5069513;28;20483;-68
2022/12/04 08:01:13;;;;;;;4.45;1.83;;;23.00;50.10;;;;;;5068469;28;20025;-68
2022/12/04 08:03:41;;;;;;;1.15;1.02;;;23.10;50.00;;;;;;5069693;28;20028;-67
2022/12/04 08:06:07;;;;;;;7.85;2.05;;;23.20;49.40;;;;;;5069385;28;20627;-66
2022/12/04 12:04:53;;;;;;;7.55;3.50;;;26.10;44.10;;;;;;5055066;28;20475;-64
2022/12/04 12:07:51;;;;;;;119.28;23.45;;;26.10;44.30;;;;;;5041760;28;20130;-67
2022/12/04 12:10:34;;;;;;;58.03;12.70;;;26.30;44.60;;;;;;5039415;28;20036;-67
2022/12/04 12:13:25;;;;;;;16.08;3.35;;;26.50;44.80;;;;;;5043256;28;20533;-66
2022/12/04 12:15:55;;;;;;;8.75;2.60;;;26.70;43.90;;;;;;5042193;28;20025;-66
2022/12/04 12:18:58;;;;;;;19.80;16.67;;;26.90;44.10;;;;;;5045374;28;20391;-64
2022/12/04 12:21:44;;;;;;;14.73;8.45;;;27.00;43.90;;;;;;5046851;28;20029;-65
2022/12/04 12:24:27;;;;;;;11.95;9.63;;;27.00;44.40;;;;;;5045537;28;20083;-66
2022/12/04 12:27:07;;;;;;;12.75;9.63;;;27.10;44.20;;;;;;5048121;28;20041;-68
2022/12/04 12:29:55;;;;;;;7.85;6.35;;;27.10;44.10;;;;;;5047958;28;20432;-66
2022/12/04 12:33:05;;;;;;;8.63;4.38;;;27.20;43.90;;;;;;5042936;28;20384;-67
2022/12/04 12:36:08;;;;;;;212.18;28.77;;;27.30;43.80;;;;;;5029755;28;20103;-68
2022/12/04 12:38:51;;;;;;;385.40;58.88;;;27.20;43.80;;;;;;5047396;28;20044;-68
2022/12/04 12:41:39;;;;;;;100.15;21.63;;;27.30;44.50;;;;;;5041591;28;20441;-68
2022/12/04 12:44:15;;;;;;;58.80;14.43;;;27.30;43.90;;;;;;5035966;28;20048;-70
2022/12/04 12:46:50;;;;;;;35.17;9.70;;;27.30;44.00;;;;;;5047146;28;20024;-70
2022/12/04 12:49:35;;;;;;;26.17;11.38;;;27.30;44.40;;;;;;5040621;28;20033;-69
2022/12/04 12:52:11;;;;;;;9.20;6.00;;;27.30;45.10;;;;;;5044138;28;20033;-66
2022/12/04 12:54:41;;;;;;;17.23;4.78;;;27.40;45.00;;;;;;5047021;28;20490;-67
2022/12/04 12:57:15;;;;;;;29.90;7.22;;;27.40;45.90;;;;;;5045817;28;20470;-73
2022/12/04 12:59:48;;;;;;;27.98;20.92;;;27.40;46.20;;;;;;5045278;28;20025;-70
2022/12/04 13:02:55;;;;;;;16.75;9.52;;;27.40;46.10;;;;;;5042272;28;20039;-67
2022/12/04 13:05:26;;;;;;;9.20;6.30;;;27.40;45.80;;;;;;5042996;28;20080;-69
2022/12/04 13:08:32;;;;;;;9.60;4.32;;;27.40;45.30;;;;;;5058294;28;20021;-68
2022/12/04 13:11:03;;;;;;;4.93;3.22;;;27.40;45.00;;;;;;5020749;28;20036;-71
2022/12/04 13:13:35;;;;;;;5.22;2.08;;;27.40;44.80;;;;;;5038988;28;20030;-70
2022/12/04 13:16:19;;;;;;;19.52;16.00;;;27.40;44.90;;;;;;5031574;28;20055;-67
2022/12/04 13:19:04;;;;;;;21.15;19.05;;;27.40;44.90;;;;;;5034450;28;20080;-67
2022/12/04 13:21:34;;;;;;;17.05;10.68;;;27.40;44.70;;;;;;5034567;28;20021;-67
2022/12/04 13:24:28;;;;;;;8.57;5.63;;;27.40;44.60;;;;;;5033258;28;20104;-68
2022/12/04 13:27:27;;;;;;;8.02;2.60;;;27.40;44.70;;;;;;5034655;28;20021;-69
2022/12/04 13:30:03;;;;;;;2.60;1.98;;;27.40;44.90;;;;;;5032246;28;20028;-67
2022/12/04 13:32:29;;;;;;;5.93;1.98;;;27.40;45.30;;;;;;5032570;28;20052;-67
2022/12/04 13:35:28;;;;;;;7.30;2.58;;;27.40;45.30;;;;;;5033891;28;20067;-67
2022/12/04 13:38:03;;;;;;;4.43;1.65;;;27.40;45.10;;;;;;5033326;28;20075;-67
2022/12/04 13:40:46;;;;;;;6.80;1.30;;;27.40;45.10;;;;;;5032624;28;20468;-67
2022/12/04 13:43:22;;;;;;;2.90;1.67;;;27.30;45.30;;;;;;5031337;28;20415;-68
2022/12/04 13:45:51;;;;;;;3.10;1.08;;;27.40;46.30;;;;;;5032808;28;20116;-69
2022/12/04 13:48:27;;;;;;;4.75;1.48;;;27.30;45.70;;;;;;5030797;28;20029;-67
2022/12/04 13:51:06;;;;;;;3.80;1.40;;;27.30;46.00;;;;;;5031602;28;20512;-67
2022/12/04 13:53:39;;;;;;;5.10;1.75;;;27.30;46.00;;;;;;5033588;28;20033;-67
2022/12/04 13:56:06;;;;;;;5.55;1.85;;;27.30;45.90;;;;;;5031658;28;20100;-67
2022/12/04 13:58:34;;;;;;;7.78;1.05;;;27.30;46.00;;;;;;5032009;28;20029;-67
2022/12/04 14:01:11;;;;;;;7.35;1.75;;;27.30;46.30;;;;;;5032068;28;20013;-69
2022/12/04 14:03:47;;;;;;;4.07;1.10;;;27.30;46.40;;;;;;5033366;28;20056;-66
2022/12/04 14:06:32;;;;;;;4.50;1.10;;;27.30;46.60;;;;;;5033741;28;20108;-70
2022/12/04 14:09:02;;;;;;;7.55;1.63;;;27.20;46.60;;;;;;5033192;28;20550;-66
2022/12/04 14:11:40;;;;;;;5.55;1.10;;;27.20;46.50;;;;;;5030492;28;20480;-68
2022/12/04 14:14:19;;;;;;;5.05;1.52;;;27.20;46.50;;;;;;5033491;28;20484;-67
2022/12/04 14:16:48;;;;;;;1.73;1.00;;;27.20;46.50;;;;;;5033630;28;20468;-69
2022/12/04 14:19:31;;;;;;;5.55;1.10;;;27.20;46.50;;;;;;5031462;28;20373;-67
2022/12/04 14:21:58;;;;;;;3.90;2.58;;;27.20;46.60;;;;;;5031006;28;20033;-68
2022/12/04 14:24:37;;;;;;;3.60;1.27;;;27.20;46.70;;;;;;5031367;28;20042;-71
2022/12/04 14:27:29;;;;;;;3.60;0.90;;;27.20;46.90;;;;;;5028876;28;20029;-67
2022/12/04 14:29:57;;;;;;;3.70;1.38;;;27.20;47.00;;;;;;5031374;28;20029;-68
2022/12/04 14:32:34;;;;;;;2.05;1.08;;;27.10;47.00;;;;;;5033235;28;20064;-67
2022/12/04 14:35:01;;;;;;;6.50;1.52;;;27.10;47.10;;;;;;5030085;28;20156;-71
2022/12/04 14:37:39;;;;;;;4.47;1.20;;;27.10;47.10;;;;;;5029732;28;20025;-67
2022/12/04 14:40:15;;;;;;;8.35;1.67;;;27.10;47.20;;;;;;5029333;28;20026;-68
2022/12/04 14:42:42;;;;;;;3.58;1.17;;;27.00;47.30;;;;;;5033251;28;20052;-71
2022/12/04 14:45:49;;;;;;;7.63;2.20;;;27.00;47.20;;;;;;5030447;28;20018;-68
2022/12/04 14:48:40;;;;;;;6.45;1.83;;;27.00;47.00;;;;;;5028104;28;20033;-69
2022/12/04 14:51:40;;;;;;;13.27;7.68;;;27.00;46.80;;;;;;5029811;28;20053;-66
2022/12/04 14:54:40;;;;;;;8.13;3.42;;;27.00;46.60;;;;;;5032297;28;20116;-68
2022/12/04 14:57:35;;;;;;;11.98;2.05;;;27.00;47.00;;;;;;5029156;28;20036;-66
2022/12/04 15:00:04;;;;;;;3.67;1.55;;;26.90;47.10;;;;;;5028720;28;20040;-69
2022/12/04 15:02:42;;;;;;;6.60;1.88;;;26.90;47.10;;;;;;5030888;28;20053;-70
2022/12/04 15:05:11;;;;;;;4.63;1.65;;;26.90;47.10;;;;;;5030920;28;20072;-67
2022/12/04 15:07:49;;;;;;;16.10;1.50;;;26.90;47.10;;;;;;5023763;28;20036;-68
2022/12/04 15:13:10;;;;;;;2.08;0.85;;;26.80;46.90;;;;;;5026120;28;20554;-69
2022/12/04 15:15:43;;;;;;;5.20;1.48;;;26.80;47.00;;;;;;5022880;28;20031;-68
2022/12/04 15:18:14;;;;;;;6.32;1.05;;;26.70;47.00;;;;;;5028883;28;20109;-71
2022/12/04 15:20:53;;;;;;;13.00;8.27;;;26.70;47.20;;;;;;5030966;28;20049;-72
2022/12/04 15:23:42;;;;;;;10.65;9.18;;;26.70;47.40;;;;;;5029298;28;20037;-67
2022/12/04 15:26:14;;;;;;;8.50;7.20;;;26.60;47.50;;;;;;5027152;28;20021;-70
2022/12/04 15:28:46;;;;;;;5.43;3.00;;;26.60;47.50;;;;;;5028927;28;20018;-72
2022/12/04 15:31:25;;;;;;;6.03;1.67;;;26.50;47.30;;;;;;5028260;28;20021;-68
2022/12/04 15:33:55;;;;;;;4.90;1.23;;;26.50;47.50;;;;;;5028487;28;20032;-64
2022/12/04 15:36:44;;;;;;;5.25;1.80;;;26.50;47.70;;;;;;5029862;28;20029;-71
2022/12/04 15:39:27;;;;;;;3.28;1.80;;;26.40;47.80;;;;;;5033345;28;20021;-69
2022/12/04 15:42:23;;;;;;;1.42;1.05;;;26.40;47.80;;;;;;5028914;28;20044;-68
2022/12/04 15:45:02;;;;;;;7.55;1.67;;;26.40;47.90;;;;;;5030847;28;20491;-71
2022/12/04 15:47:37;;;;;;;2.13;1.02;;;26.40;47.80;;;;;;5025497;28;20025;-65
2022/12/04 15:50:30;;;;;;;5.00;2.45;;;26.40;47.80;;;;;;5030359;28;20495;-66
2022/12/04 15:53:25;;;;;;;4.70;1.10;;;26.30;47.70;;;;;;5029677;28;20044;-68
2022/12/04 15:55:58;;;;;;;5.97;0.90;;;26.30;47.70;;;;;;5031383;28;20491;-70
2022/12/04 15:58:34;;;;;;;3.85;1.70;;;26.30;47.70;;;;;;5028645;28;20030;-65
2022/12/04 16:01:03;;;;;;;5.50;1.00;;;26.30;47.90;;;;;;5032974;28;20096;-68
2022/12/04 18:21:12;;;;;;;4.00;1.10;;;24.30;51.50;;;;;;6142449;22;2431960;-65
2022/12/04 18:23:44;;;;;;;3.08;1.08;;;24.30;51.50;;;;;;6249082;23;20022;-67
2022/12/04 18:26:17;;;;;;;4.47;1.08;;;24.30;51.40;;;;;;6248656;23;19996;-64
2022/12/04 18:28:44;;;;;;;2.30;1.23;;;24.30;51.40;;;;;;6249792;23;20000;-65
2022/12/04 18:31:11;;;;;;;2.05;1.08;;;24.30;51.40;;;;;;6248641;23;20030;-65
2022/12/04 18:33:39;;;;;;;17.65;13.48;;;24.30;51.50;;;;;;6250331;23;19996;-68
2022/12/04 18:36:45;;;;;;;21.45;19.23;;;24.30;51.50;;;;;;6248870;23;20142;-65
2022/12/04 18:39:52;;;;;;;12.90;8.52;;;24.30;51.60;;;;;;6248407;23;20348;-67
2022/12/04 18:42:37;;;;;;;;;;;24.30;51.80;;;;;;6249730;23;20000;-67
2022/12/04 18:45:44;;;;;;;3.80;2.53;;;24.30;51.70;;;;;;6249106;23;19914;-67
2022/12/04 18:48:50;;;;;;;3.15;1.50;;;24.30;51.60;;;;;;6249370;23;20109;-69
2022/12/04 18:51:36;;;;;;;;;;;24.20;51.60;;;;;;6249633;23;20030;-68
2022/12/04 18:54:06;;;;;;;4.75;1.17;;;24.20;51.60;;;;;;6248233;23;20188;-68
2022/12/04 18:56:34;;;;;;;1.35;1.25;;;24.20;51.50;;;;;;6248576;23;20354;-64
2022/12/04 18:59:03;;;;;;;4.15;1.05;;;24.20;51.60;;;;;;6249848;23;20000;-67
2022/12/04 19:01:31;;;;;;;4.97;1.17;;;24.10;51.60;;;;;;6248307;23;19996;-68
2022/12/04 19:04:02;;;;;;;10.35;1.15;;;24.10;51.60;;;;;;6249690;23;20015;-67
2022/12/04 19:06:31;;;;;;;5.13;0.85;;;24.10;52.00;;;;;;6248192;23;20004;-67
2022/12/04 19:09:08;;;;;;;2.05;0.90;;;24.10;52.00;;;;;;6249888;23;20000;-67
2022/12/04 19:12:14;;;;;;;3.70;1.42;;;24.10;51.90;;;;;;6248309;23;20569;-66
2022/12/04 19:15:20;;;;;;;4.78;1.13;;;24.00;52.20;;;;;;6246073;23;20035;-67
2022/12/04 19:18:26;;;;;;;3.30;0.90;;;24.00;51.90;;;;;;6242753;23;20342;-67
2022/12/04 19:21:33;;;;;;;2.33;1.42;;;23.90;52.00;;;;;;6242495;23;20482;-69
2022/12/04 19:24:19;;;;;;;;;;;23.90;52.10;;;;;;6242218;23;20091;-67
2022/12/04 19:26:46;;;;;;;24.10;17.33;;;23.90;52.10;;;;;;6242448;23;20307;-67
2022/12/04 19:29:14;;;;;;;11.60;10.40;;;23.90;52.40;;;;;;6242295;23;20073;-69
2022/12/04 19:31:41;;;;;;;8.52;4.88;;;23.90;52.30;;;;;;6241756;23;20000;-67
2022/12/04 19:34:07;;;;;;;8.05;3.38;;;23.90;52.90;;;;;;6242439;23;20011;-67
2022/12/04 19:36:35;;;;;;;3.58;2.00;;;23.80;52.20;;;;;;6241173;23;20008;-68
2022/12/04 19:39:03;;;;;;;4.20;1.98;;;23.80;52.10;;;;;;6242867;23;20011;-67
2022/12/04 19:41:33;;;;;;;3.22;1.75;;;23.80;52.20;;;;;;6241368;23;20416;-67
2022/12/04 19:44:00;;;;;;;2.67;1.35;;;23.80;52.60;;;;;;6242054;23;20038;-67
2022/12/04 19:46:31;;;;;;;4.60;2.30;;;23.80;52.80;;;;;;6242339;23;20000;-67
2022/12/04 19:49:03;;;;;;;1.88;1.10;;;23.80;52.90;;;;;;6241032;23;20028;-67
2022/12/04 19:51:32;;;;;;;3.95;2.15;;;23.80;53.10;;;;;;6242395;23;20067;-67
2022/12/04 19:53:59;;;;;;;3.25;1.60;;;23.80;53.20;;;;;;6240749;23;20000;-67
2022/12/04 19:56:27;;;;;;;4.25;1.55;;;23.70;53.20;;;;;;6242693;23;20089;-67
2022/12/04 19:58:57;;;;;;;2.78;1.95;;;23.70;53.20;;;;;;6241114;23;20060;-68
2022/12/04 20:01:27;;;;;;;2.05;0.88;;;23.70;53.30;;;;;;6242073;23;20319;-66
2022/12/04 20:03:54;;;;;;;10.55;6.78;;;23.70;53.20;;;;;;6242253;23;20012;-67
2022/12/04 20:06:24;;;;;;;57.25;48.78;;;23.70;53.40;;;;;;6240760;23;20069;-67
2022/12/04 20:09:13;;;;;;;35.25;28.23;;;23.70;53.40;;;;;;6242267;23;20023;-68
2022/12/04 20:11:45;;;;;;;16.95;14.18;;;23.70;53.30;;;;;;6240984;23;20046;-65
2022/12/04 20:14:11;;;;;;;8.40;7.50;;;23.70;53.90;;;;;;6242344;23;20484;-67
2022/12/04 20:16:39;;;;;;;4.18;3.05;;;23.70;53.30;;;;;;6241080;23;20004;-64
2022/12/04 20:19:11;;;;;;;4.93;2.17;;;23.70;53.40;;;;;;6241069;23;20701;-69
2022/12/04 20:21:38;;;;;;;4.40;1.95;;;23.60;53.40;;;;;;6241651;23;20054;-67
2022/12/04 20:24:06;;;;;;;8.57;7.70;;;23.60;53.50;;;;;;6240463;23;20016;-65
2022/12/04 20:26:37;;;;;;;38.45;30.23;;;23.60;53.60;;;;;;6241492;23;19996;-66
2022/12/04 20:29:04;;;;;;;57.28;48.25;;;23.60;53.80;;;;;;6240109;23;20079;-65
2022/12/04 20:31:34;;;;;;;30.52;25.17;;;23.60;53.90;;;;;;6241639;23;20011;-68
2022/12/04 20:34:03;;;;;;;13.20;10.90;;;23.60;54.00;;;;;;6240469;23;20004;-67
2022/12/04 20:36:34;;;;;;;8.10;5.43;;;23.60;54.00;;;;;;6241569;23;20011;-65
2022/12/04 20:39:00;;;;;;;4.28;3.60;;;23.60;54.10;;;;;;6241144;23;20004;-66
2022/12/04 20:41:29;;;;;;;5.70;2.53;;;23.60;54.20;;;;;;6240316;23;20000;-66
2022/12/04 20:43:59;;;;;;;2.33;1.83;;;23.60;54.20;;;;;;6241509;23;20098;-64
2022/12/04 20:46:32;;;;;;;5.40;1.70;;;23.50;54.30;;;;;;6240093;23;20004;-69
2022/12/04 20:49:00;;;;;;;3.78;1.83;;;23.50;54.50;;;;;;6241631;23;20072;-65
2022/12/04 20:51:35;;;;;;;2.72;1.33;;;23.50;54.50;;;;;;6240805;23;20073;-67
2022/12/04 20:54:02;;;;;;;5.55;1.10;;;23.50;54.70;;;;;;6241201;23;20000;-65
2022/12/04 20:56:35;;;;;;;4.28;0.95;;;23.50;54.60;;;;;;6241806;23;19996;-65
2022/12/04 20:59:06;;;;;;;4.22;1.63;;;23.50;54.80;;;;;;6240309;23;20027;-65
2022/12/04 21:01:33;;;;;;;2.70;1.10;;;23.50;54.70;;;;;;6241399;23;19996;-66
2022/12/04 21:04:00;;;;;;;6.30;1.42;;;23.50;54.70;;;;;;6240649;23;20047;-65
2022/12/04 21:06:31;;;;;;;2.63;1.45;;;23.40;54.60;;;;;;6241712;23;20042;-66
2022/12/04 21:09:00;;;;;;;2.40;0.98;;;23.40;54.70;;;;;;6240916;23;20420;-65
2022/12/04 21:11:33;;;;;;;2.97;1.08;;;23.40;54.70;;;;;;6240705;23;19992;-64
2022/12/04 21:16:48;;;;;;;3.97;1.30;;;23.40;54.70;;;;;;6240193;23;20011;-65
2022/12/04 21:19:18;;;;;;;5.13;2.05;;;23.40;54.80;;;;;;6241207;23;20039;-65
2022/12/04 21:21:44;;;;;;;3.40;1.38;;;23.40;54.70;;;;;;6240182;23;20004;-66
2022/12/04 21:24:13;;;;;;;1.23;0.90;;;23.40;54.60;;;;;;6241211;23;20023;-66
2022/12/04 21:26:40;;;;;;;5.00;1.88;;;23.40;54.50;;;;;;6241220;23;20047;-66
2022/12/04 21:29:07;;;;;;;1.98;1.00;;;23.30;54.50;;;;;;6240627;23;20000;-65
2022/12/04 21:31:35;;;;;;;1.33;1.23;;;23.30;54.50;;;;;;6241828;23;20000;-65
2022/12/04 21:34:05;;;;;;;5.18;1.67;;;23.40;54.50;;;;;;6240183;23;20427;-66
2022/12/04 21:36:32;;;;;;;2.42;0.90;;;23.30;54.50;;;;;;6241542;23;20004;-64
2022/12/04 21:38:59;;;;;;;2.97;1.13;;;23.30;54.50;;;;;;6240353;23;19996;-65
2022/12/04 21:44:17;;;;;;;4.80;1.70;;;23.30;55.10;;;;;;6241239;23;20067;-65
2022/12/04 21:46:44;;;;;;;5.07;1.15;;;23.30;55.10;;;;;;6240027;23;20000;-65
2022/12/04 21:49:11;;;;;;;2.67;0.82;;;23.30;55.10;;;;;;6241443;23;20023;-65
2022/12/04 21:51:39;;;;;;;3.00;1.02;;;23.20;55.10;;;;;;6239761;23;20442;-66
2022/12/04 21:54:05;;;;;;;6.15;1.23;;;23.20;55.10;;;;;;6241258;23;19996;-65
2022/12/04 21:56:32;;;;;;;4.32;1.30;;;23.20;55.10;;;;;;6240697;23;20032;-66
2022/12/04 21:58:59;;;;;;;2.22;1.60;;;23.10;55.10;;;;;;6240308;23;19996;-66
2022/12/04 22:01:26;;;;;;;5.13;1.90;;;23.10;54.80;;;;;;6241158;23;20004;-65
2022/12/04 22:03:55;;;;;;;3.60;1.75;;;23.20;54.70;;;;;;6212679;23;20335;-65
